Time;durP1;ratioP1;P1;durP2;ratioP2;P2;SDS_P1;SDS_P2;PMS_P1;PMS_P2;Temp;Humidity;BMP_temperature;BMP_pressure;BME280_temperature;BME280_humidity;BME280_pressure;Samples;Min_cycle;Max_cycle;Signal;HPM_P1;HPM_P2
2021/04/18 00:01:41;;;;;;;18.80;9.73;;;;;;;;;;2247950;63;20178;-84
2021/04/18 00:04:10;;;;;;;17.48;8.85;;;;;;;;;;2247902;63;20198;-86
2021/04/18 00:06:45;;;;;;;16.27;9.65;;;;;;;;;;2247760;64;20316;-84
2021/04/18 00:09:12;;;;;;;17.98;9.20;;;;;;;;;;2247820;64;20242;-80
2021/04/18 00:11:42;;;;;;;15.85;9.35;;;;;;;;;;2248121;63;20134;-82
2021/04/18 00:14:11;;;;;;;17.52;9.38;;;;;;;;;;2248080;63;20134;-84
2021/04/18 00:16:39;;;;;;;17.73;8.40;;;;;;;;;;2247725;63;20144;-85
2021/04/18 00:19:07;;;;;;;14.45;8.38;;;;;;;;;;2248186;63;20194;-83
2021/04/18 00:21:36;;;;;;;14.43;8.73;;;;;;;;;;2247788;64;20194;-85
2021/04/18 00:24:04;;;;;;;16.58;8.75;;;;;;;;;;2247787;63;20171;-81
2021/04/18 00:26:33;;;;;;;21.02;9.20;;;;;;;;;;2247389;63;20186;-83
2021/04/18 00:29:00;;;;;;;15.80;9.52;;;;;;;;;;2247582;63;20335;-81
2021/04/18 00:31:28;;;;;;;14.88;8.68;;;;;;;;;;2248580;63;20201;-83
2021/04/18 00:33:55;;;;;;;17.77;10.32;;;;;;;;;;2248614;64;20237;-81
2021/04/18 00:36:22;;;;;;;19.13;9.95;;;;;;;;;;2248773;64;20192;-84
2021/04/18 00:38:49;;;;;;;17.63;9.73;;;;;;;;;;2248334;63;20281;-82
2021/04/18 00:41:17;;;;;;;12.75;8.80;;;;;;;;;;2248293;63;20257;-83
2021/04/18 00:43:45;;;;;;;17.58;9.18;;;;;;;;;;2248277;64;20217;-83
2021/04/18 00:46:13;;;;;;;11.38;9.15;;;;;;;;;;2248111;64;20226;-81
2021/04/18 00:48:44;;;;;;;20.75;9.18;;;;;;;;;;2248851;63;20146;-81
2021/04/18 00:51:13;;;;;;;15.75;9.57;;;;;;;;;;2248642;63;20206;-81
2021/04/18 00:53:42;;;;;;;17.08;9.55;;;;;;;;;;2248846;63;20221;-80
2021/04/18 00:56:10;;;;;;;17.30;8.98;;;;;;;;;;2249142;63;20186;-83
2021/04/18 00:58:39;;;;;;;17.73;9.40;;;;;;;;;;2248937;64;20331;-82
2021/04/18 01:01:07;;;;;;;17.75;9.13;;;;;;;;;;2249444;63;20119;-82
2021/04/18 01:03:35;;;;;;;17.83;10.50;;;;;;;;;;2248937;63;20192;-81
2021/04/18 01:06:03;;;;;;;13.70;9.13;;;;;;;;;;2249087;63;20155;-84
2021/04/18 01:08:38;;;;;;;18.38;9.40;;;;;;;;;;2249248;63;20363;-81
2021/04/18 01:11:05;;;;;;;17.40;8.73;;;;;;;;;;2248979;63;20195;-83
2021/04/18 01:13:33;;;;;;;15.77;9.02;;;;;;;;;;2248612;63;20886;-86
2021/04/18 01:16:01;;;;;;;15.68;9.52;;;;;;;;;;2248801;64;20178;-79
2021/04/18 01:18:28;;;;;;;19.33;9.63;;;;;;;;;;2248578;63;20131;-82
2021/04/18 01:21:13;;;;;;;18.05;10.48;;;;;;;;;;2248744;63;20387;-83
2021/04/18 01:23:41;;;;;;;19.02;9.15;;;;;;;;;;2242136;64;20182;-84
2021/04/18 01:26:09;;;;;;;13.40;9.05;;;;;;;;;;2248640;63;20194;-83
2021/04/18 01:28:37;;;;;;;12.43;9.18;;;;;;;;;;2248855;63;20126;-81
2021/04/18 01:31:05;;;;;;;24.40;10.05;;;;;;;;;;2248602;64;20180;-80
2021/04/18 01:33:34;;;;;;;14.75;9.77;;;;;;;;;;2248425;64;20684;-84
2021/04/18 01:36:03;;;;;;;18.80;10.23;;;;;;;;;;2248831;64;20156;-83
2021/04/18 01:38:31;;;;;;;15.70;9.52;;;;;;;;;;2248953;63;20130;-78
2021/04/18 01:40:59;;;;;;;13.15;9.45;;;;;;;;;;2248984;63;20189;-85
2021/04/18 01:43:28;;;;;;;16.92;10.93;;;;;;;;;;2249406;63;20272;-80
2021/04/18 01:45:55;;;;;;;17.40;8.68;;;;;;;;;;2249412;63;20183;-84
2021/04/18 01:48:23;;;;;;;16.60;9.23;;;;;;;;;;2249728;63;20288;-85
2021/04/18 01:50:52;;;;;;;16.77;9.23;;;;;;;;;;2248975;63;20188;-81
2021/04/18 01:53:20;;;;;;;19.08;10.10;;;;;;;;;;2248793;63;20142;-82
2021/04/18 01:55:47;;;;;;;19.33;9.90;;;;;;;;;;2248805;63;20250;-82
2021/04/18 01:58:15;;;;;;;17.88;10.60;;;;;;;;;;2248793;63;20182;-81
2021/04/18 02:00:44;;;;;;;12.57;9.52;;;;;;;;;;2248570;64;20244;-84
2021/04/18 02:03:13;;;;;;;19.70;10.77;;;;;;;;;;2248647;63;20245;-82
2021/04/18 02:05:43;;;;;;;15.90;9.70;;;;;;;;;;2248703;63;20158;-83
2021/04/18 02:08:11;;;;;;;15.77;9.80;;;;;;;;;;2248403;63;20139;-85
2021/04/18 02:10:46;;;;;;;20.02;10.32;;;;;;;;;;2248176;63;20195;-80
2021/04/18 02:13:15;;;;;;;18.50;10.40;;;;;;;;;;2248190;64;20241;-80
2021/04/18 02:15:43;;;;;;;22.73;11.27;;;;;;;;;;2248138;64;20179;-81
2021/04/18 02:18:11;;;;;;;18.83;11.25;;;;;;;;;;2248118;63;20201;-86
2021/04/18 02:20:39;;;;;;;19.77;10.38;;;;;;;;;;2248623;63;20143;-81
2021/04/18 02:23:07;;;;;;;16.75;10.32;;;;;;;;;;2247996;63;20242;-83
2021/04/18 02:25:35;;;;;;;14.18;10.20;;;;;;;;;;2247669;63;20181;-80
2021/04/18 02:28:04;;;;;;;17.40;10.10;;;;;;;;;;2247269;63;20200;-83
2021/04/18 02:30:31;;;;;;;16.85;9.18;;;;;;;;;;2247308;63;20241;-82
2021/04/18 02:32:59;;;;;;;13.98;9.23;;;;;;;;;;2247847;64;20270;-79
2021/04/18 02:35:26;;;;;;;11.35;8.57;;;;;;;;;;2248334;63;20214;-82
2021/04/18 02:37:55;;;;;;;13.50;10.00;;;;;;;;;;2248270;63;20261;-84
2021/04/18 02:40:23;;;;;;;11.23;8.65;;;;;;;;;;2248398;63;20186;-81
2021/04/18 02:42:52;;;;;;;12.40;8.85;;;;;;;;;;2248330;63;20158;-84
2021/04/18 02:45:21;;;;;;;13.32;10.15;;;;;;;;;;2247863;63;20170;-82
2021/04/18 02:47:50;;;;;;;12.35;9.85;;;;;;;;;;2248485;63;20189;-84
2021/04/18 02:50:18;;;;;;;13.05;9.80;;;;;;;;;;2241790;64;20202;-78
2021/04/18 02:52:45;;;;;;;12.02;9.38;;;;;;;;;;2248394;63;20228;-82
2021/04/18 02:55:13;;;;;;;12.50;8.80;;;;;;;;;;2247799;64;20176;-83
2021/04/18 02:57:41;;;;;;;13.23;9.60;;;;;;;;;;2248659;63;20310;-80
2021/04/18 03:00:10;;;;;;;11.20;8.88;;;;;;;;;;2247881;63;20250;-84
2021/04/18 03:02:50;;;;;;;11.30;10.18;;;;;;;;;;2248768;63;20183;-85
2021/04/18 03:05:18;;;;;;;12.13;9.05;;;;;;;;;;2248852;63;20202;-85
2021/04/18 03:07:48;;;;;;;11.13;9.45;;;;;;;;;;2249129;63;20142;-87
2021/04/18 03:10:16;;;;;;;10.55;9.32;;;;;;;;;;2248782;63;20305;-82
2021/04/18 03:12:49;;;;;;;14.68;9.07;;;;;;;;;;2247661;63;20166;-77
2021/04/18 03:15:16;;;;;;;13.50;9.77;;;;;;;;;;2246991;63;20264;-81
2021/04/18 03:17:44;;;;;;;13.52;9.40;;;;;;;;;;2247329;64;20735;-80
2021/04/18 03:20:11;;;;;;;9.80;8.80;;;;;;;;;;2247430;64;20158;-84
2021/04/18 03:22:38;;;;;;;9.80;8.50;;;;;;;;;;2246919;63;20160;-83
2021/04/18 03:25:05;;;;;;;8.82;7.45;;;;;;;;;;2246739;63;20230;-85
2021/04/18 03:27:32;;;;;;;9.27;8.32;;;;;;;;;;2246646;64;20894;-83
2021/04/18 03:30:00;;;;;;;10.60;7.75;;;;;;;;;;2246879;63;20303;-82
2021/04/18 03:32:28;;;;;;;8.85;7.95;;;;;;;;;;2247013;63;20285;-82
2021/04/18 03:34:55;;;;;;;8.07;7.38;;;;;;;;;;2246610;64;20170;-82
2021/04/18 03:37:23;;;;;;;8.07;7.05;;;;;;;;;;2246419;63;20323;-83
2021/04/18 03:39:50;;;;;;;8.07;7.30;;;;;;;;;;2246840;63;20191;-83
2021/04/18 03:42:18;;;;;;;8.15;7.30;;;;;;;;;;2247104;64;20225;-83
2021/04/18 03:44:44;;;;;;;8.25;7.45;;;;;;;;;;2247473;64;20123;-82
2021/04/18 03:47:12;;;;;;;8.27;7.45;;;;;;;;;;2247150;63;20208;-80
2021/04/18 03:49:40;;;;;;;9.27;7.88;;;;;;;;;;2246896;63;20181;-82
2021/04/18 03:52:07;;;;;;;8.93;7.68;;;;;;;;;;2246481;64;20177;-82
2021/04/18 03:54:35;;;;;;;8.93;8.02;;;;;;;;;;2246943;63;20268;-79
2021/04/18 03:57:02;;;;;;;8.32;7.57;;;;;;;;;;2247387;64;20182;-82
2021/04/18 03:59:29;;;;;;;7.93;7.13;;;;;;;;;;2247088;64;20199;-83
2021/04/18 04:01:56;;;;;;;9.10;8.07;;;;;;;;;;2246368;64;20196;-80
2021/04/18 04:04:23;;;;;;;10.48;7.75;;;;;;;;;;2245985;64;20265;-83
2021/04/18 04:06:51;;;;;;;8.23;7.32;;;;;;;;;;2247477;64;20191;-81
2021/04/18 04:09:18;;;;;;;10.25;7.95;;;;;;;;;;2248189;63;20230;-82
2021/04/18 04:11:45;;;;;;;9.80;7.90;;;;;;;;;;2248289;63;20290;-82
2021/04/18 04:14:17;;;;;;;8.98;7.65;;;;;;;;;;2248463;63;20131;-84
2021/04/18 04:16:44;;;;;;;8.68;7.13;;;;;;;;;;2248420;63;20188;-81
2021/04/18 04:19:11;;;;;;;7.78;6.97;;;;;;;;;;2248733;64;20207;-82
2021/04/18 04:21:38;;;;;;;10.82;7.93;;;;;;;;;;2248707;63;20225;-82
2021/04/18 04:24:06;;;;;;;8.85;7.95;;;;;;;;;;2248458;63;20347;-83
2021/04/18 04:26:34;;;;;;;10.70;8.00;;;;;;;;;;2248801;63;20335;-83
2021/04/18 04:29:01;;;;;;;10.20;8.30;;;;;;;;;;2248565;64;20158;-83
2021/04/18 04:31:28;;;;;;;8.77;7.97;;;;;;;;;;2248941;63;20205;-82
2021/04/18 04:33:55;;;;;;;8.43;7.70;;;;;;;;;;2248501;64;20122;-82
2021/04/18 04:36:23;;;;;;;10.48;8.07;;;;;;;;;;2248629;63;20286;-80
2021/04/18 04:38:50;;;;;;;8.30;7.55;;;;;;;;;;2248846;63;20206;-83
2021/04/18 04:41:18;;;;;;;16.48;7.57;;;;;;;;;;2248958;64;20179;-81
2021/04/18 04:43:46;;;;;;;10.20;8.20;;;;;;;;;;2249215;63;20132;-83
2021/04/18 04:46:13;;;;;;;25.83;8.35;;;;;;;;;;2249206;63;20154;-80
2021/04/18 04:48:42;;;;;;;38.10;7.95;;;;;;;;;;2249119;63;20162;-81
2021/04/18 04:51:08;;;;;;;18.73;7.13;;;;;;;;;;2248699;64;20309;-82
2021/04/18 04:53:35;;;;;;;12.52;7.07;;;;;;;;;;2249358;63;20188;-82
2021/04/18 04:56:03;;;;;;;28.65;7.38;;;;;;;;;;2248926;63;20142;-80
2021/04/18 04:58:31;;;;;;;25.38;8.23;;;;;;;;;;2248831;63;20174;-84
2021/04/18 05:00:57;;;;;;;47.63;9.25;;;;;;;;;;2249444;63;20156;-82
2021/04/18 05:03:27;;;;;;;26.80;7.78;;;;;;;;;;2249913;63;20500;-80
2021/04/18 05:05:55;;;;;;;37.08;8.45;;;;;;;;;;2249609;63;20123;-81
2021/04/18 05:08:22;;;;;;;52.40;10.55;;;;;;;;;;2249596;63;20119;-80
2021/04/18 05:10:50;;;;;;;46.05;9.02;;;;;;;;;;2249346;63;20143;-81
2021/04/18 05:13:17;;;;;;;65.63;10.48;;;;;;;;;;2249470;63;20144;-79
2021/04/18 05:15:49;;;;;;;46.60;9.23;;;;;;;;;;2249192;63;20191;-80
2021/04/18 05:18:17;;;;;;;55.00;10.82;;;;;;;;;;2248526;63;20173;-80
2021/04/18 05:20:44;;;;;;;72.15;8.90;;;;;;;;;;2248018;64;20152;-81
2021/04/18 05:23:11;;;;;;;77.20;9.73;;;;;;;;;;2247590;64;20463;-82
2021/04/18 05:25:39;;;;;;;83.07;11.75;;;;;;;;;;2247898;63;20209;-85
2021/04/18 05:28:06;;;;;;;71.22;11.25;;;;;;;;;;2247879;63;20228;-83
2021/04/18 05:30:33;;;;;;;65.18;9.43;;;;;;;;;;2247025;64;20338;-83
2021/04/18 05:33:00;;;;;;;118.53;11.95;;;;;;;;;;2247122;64;20263;-82
2021/04/18 05:35:28;;;;;;;73.10;10.45;;;;;;;;;;2247142;63;20213;-82
2021/04/18 05:37:56;;;;;;;82.95;11.35;;;;;;;;;;2247344;63;20158;-83
2021/04/18 05:40:23;;;;;;;77.03;11.00;;;;;;;;;;2247622;63;20203;-80
2021/04/18 05:42:52;;;;;;;98.30;11.38;;;;;;;;;;2246967;64;20182;-83
2021/04/18 05:45:19;;;;;;;62.40;10.43;;;;;;;;;;2246749;63;20209;-80
2021/04/18 05:47:47;;;;;;;116.50;11.48;;;;;;;;;;2246712;64;20254;-80
2021/04/18 05:50:15;;;;;;;67.10;9.05;;;;;;;;;;2246857;64;20186;-79
2021/04/18 05:52:44;;;;;;;76.22;11.25;;;;;;;;;;2247180;63;20191;-84
2021/04/18 05:55:11;;;;;;;42.05;9.30;;;;;;;;;;2247138;63;20229;-81
2021/04/18 05:57:38;;;;;;;46.38;9.25;;;;;;;;;;2247761;64;20266;-79
2021/04/18 06:00:06;;;;;;;49.65;9.73;;;;;;;;;;2247657;64;20170;-83
2021/04/18 06:02:34;;;;;;;30.30;8.23;;;;;;;;;;2247874;63;20182;-86
2021/04/18 06:05:01;;;;;;;31.83;8.02;;;;;;;;;;2247693;64;20174;-83
2021/04/18 06:07:27;;;;;;;10.30;7.47;;;;;;;;;;2248283;63;20194;-81
2021/04/18 06:09:55;;;;;;;7.95;7.15;;;;;;;;;;2248387;63;20198;-86
2021/04/18 06:12:23;;;;;;;8.13;7.20;;;;;;;;;;2247897;63;20166;-83
2021/04/18 06:14:50;;;;;;;7.22;6.45;;;;;;;;;;2247651;63;20173;-82
2021/04/18 06:17:22;;;;;;;8.00;7.15;;;;;;;;;;2249154;63;20119;-82
2021/04/18 06:19:49;;;;;;;7.60;6.25;;;;;;;;;;2248339;63;20286;-84
2021/04/18 06:22:17;;;;;;;7.68;6.85;;;;;;;;;;2248328;63;20236;-83
2021/04/18 06:24:44;;;;;;;7.28;6.57;;;;;;;;;;2247551;63;20179;-83
2021/04/18 06:27:12;;;;;;;8.07;6.57;;;;;;;;;;2247237;63;20311;-81
2021/04/18 06:29:39;;;;;;;8.98;7.13;;;;;;;;;;2247102;63;20238;-80
2021/04/18 06:32:07;;;;;;;7.90;7.07;;;;;;;;;;2247456;64;20199;-82
2021/04/18 06:34:33;;;;;;;7.50;6.80;;;;;;;;;;2247595;63;20142;-84
2021/04/18 06:37:00;;;;;;;9.55;6.45;;;;;;;;;;2247082;63;20111;-81
2021/04/18 06:39:27;;;;;;;8.55;6.72;;;;;;;;;;2247105;64;20211;-85
2021/04/18 06:41:55;;;;;;;8.02;6.25;;;;;;;;;;2247909;63;20151;-83
2021/04/18 06:44:24;;;;;;;8.10;6.35;;;;;;;;;;2246827;63;20197;-83
2021/04/18 06:46:52;;;;;;;8.52;6.93;;;;;;;;;;2247854;63;20310;-81
2021/04/18 06:49:19;;;;;;;7.13;6.43;;;;;;;;;;2247878;63;20223;-83
2021/04/18 06:51:47;;;;;;;7.88;6.72;;;;;;;;;;2247842;63;20170;-81
2021/04/18 06:54:14;;;;;;;9.27;6.25;;;;;;;;;;2247793;63;20320;-83
2021/04/18 06:56:41;;;;;;;10.02;6.82;;;;;;;;;;2248292;63;20154;-83
2021/04/18 06:59:09;;;;;;;7.47;6.78;;;;;;;;;;2247902;63;20209;-82
2021/04/18 07:01:36;;;;;;;7.63;6.80;;;;;;;;;;2247621;64;20139;-83
2021/04/18 07:04:10;;;;;;;8.25;6.65;;;;;;;;;;2247796;64;20260;-80
2021/04/18 07:06:41;;;;;;;8.02;6.68;;;;;;;;;;2248188;63;20133;-83
2021/04/18 07:09:08;;;;;;;8.57;7.40;;;;;;;;;;2248914;63;20174;-80
2021/04/18 07:11:49;;;;;;;8.65;7.38;;;;;;;;;;2248672;63;20122;-81
2021/04/18 07:14:20;;;;;;;9.87;7.53;;;;;;;;;;2247999;64;20183;-81
2021/04/18 07:16:47;;;;;;;9.20;7.72;;;;;;;;;;2247647;63;21036;-84
2021/04/18 07:19:33;;;;;;;11.02;8.88;;;;;;;;;;2247788;63;20221;-81
2021/04/18 07:22:01;;;;;;;11.93;8.20;;;;;;;;;;2247393;63;20187;-83
2021/04/18 07:24:32;;;;;;;10.40;8.60;;;;;;;;;;2247602;63;20183;-83
2021/04/18 07:27:04;;;;;;;12.68;9.48;;;;;;;;;;2247671;63;20241;-83
2021/04/18 07:29:30;;;;;;;;;;;;;;;;;;2245451;63;20178;-83
2021/04/18 07:32:00;;;;;;;13.95;10.63;;;;;;;;;;2243247;63;20074;-81
2021/04/18 07:34:37;;;;;;;13.40;11.13;;;;;;;;;;2243932;64;20134;-83
2021/04/18 07:37:13;;;;;;;13.40;10.43;;;;;;;;;;2243967;64;20166;-81
2021/04/18 07:39:44;;;;;;;12.27;11.02;;;;;;;;;;2245523;64;20144;-80
2021/04/18 07:42:27;;;;;;;12.23;10.63;;;;;;;;;;2248152;64;20248;-79
2021/04/18 07:44:58;;;;;;;14.38;11.35;;;;;;;;;;2248413;63;20254;-80
2021/04/18 07:47:26;;;;;;;13.70;11.30;;;;;;;;;;2248354;64;20343;-83
2021/04/18 07:49:53;;;;;;;13.82;10.70;;;;;;;;;;2248033;63;20178;-84
2021/04/18 07:52:22;;;;;;;13.15;9.90;;;;;;;;;;2247445;64;20178;-84
2021/04/18 07:54:50;;;;;;;12.90;9.63;;;;;;;;;;2243648;64;20200;-83
2021/04/18 07:57:18;;;;;;;10.07;9.00;;;;;;;;;;2243863;64;20167;-85
2021/04/18 07:59:45;;;;;;;12.68;10.55;;;;;;;;;;2242298;63;20399;-82
2021/04/18 08:02:19;;;;;;;13.13;10.75;;;;;;;;;;2241634;64;20158;-82
2021/04/18 08:04:50;;;;;;;11.98;9.75;;;;;;;;;;2244741;63;20726;-80
2021/04/18 08:07:17;;;;;;;15.10;11.00;;;;;;;;;;2242644;63;20187;-82
2021/04/18 08:09:45;;;;;;;13.68;10.90;;;;;;;;;;2243172;64;20151;-79
2021/04/18 08:12:16;;;;;;;13.57;9.68;;;;;;;;;;2239978;64;20257;-80
2021/04/18 08:14:44;;;;;;;12.50;10.02;;;;;;;;;;2240654;64;20179;-85
2021/04/18 08:17:14;;;;;;;10.68;9.57;;;;;;;;;;2239977;64;20195;-82
2021/04/18 08:20:00;;;;;;;10.68;9.25;;;;;;;;;;2243682;64;20319;-85
2021/04/18 08:22:58;;;;;;;13.23;9.95;;;;;;;;;;2240930;64;20320;-80
2021/04/18 08:25:30;;;;;;;10.98;9.07;;;;;;;;;;2214705;64;20217;-84
2021/04/18 08:28:13;;;;;;;10.88;9.45;;;;;;;;;;2242537;63;20335;-83
2021/04/18 08:31:00;;;;;;;10.05;9.02;;;;;;;;;;2243757;63;20292;-83
2021/04/18 08:33:51;;;;;;;11.77;8.85;;;;;;;;;;2246087;63;20194;-81
2021/04/18 08:36:19;;;;;;;12.35;9.68;;;;;;;;;;2242639;63;20196;-83
2021/04/18 08:38:51;;;;;;;10.45;9.00;;;;;;;;;;2246414;63;20142;-82
2021/04/18 08:41:19;;;;;;;11.52;9.20;;;;;;;;;;2244714;64;20192;-83
2021/04/18 08:43:47;;;;;;;9.95;8.50;;;;;;;;;;2245613;64;20174;-83
2021/04/18 08:46:24;;;;;;;15.88;8.07;;;;;;;;;;2244078;64;20166;-81
2021/04/18 08:48:53;;;;;;;10.30;7.65;;;;;;;;;;2245561;64;20126;-82
2021/04/18 08:51:21;;;;;;;12.90;8.55;;;;;;;;;;2244537;64;20174;-85
2021/04/18 08:54:01;;;;;;;10.57;8.60;;;;;;;;;;2242591;64;20620;-83
2021/04/18 08:56:47;;;;;;;11.25;8.60;;;;;;;;;;2228431;64;20183;-82
2021/04/18 08:59:15;;;;;;;10.38;8.45;;;;;;;;;;2240481;64;20195;-82
2021/04/18 09:01:55;;;;;;;12.73;8.80;;;;;;;;;;2243886;63;20662;-82
2021/04/18 09:04:23;;;;;;;11.05;8.05;;;;;;;;;;2242538;63;20337;-81
2021/04/18 09:06:51;;;;;;;13.70;8.45;;;;;;;;;;2244065;63;20242;-82
2021/04/18 09:09:19;;;;;;;12.50;8.27;;;;;;;;;;2245285;63;20193;-81
2021/04/18 09:11:47;;;;;;;12.13;7.55;;;;;;;;;;2246934;64;20247;-82
2021/04/18 09:14:19;;;;;;;10.65;8.35;;;;;;;;;;2247435;63;20190;-82
2021/04/18 09:16:47;;;;;;;11.75;8.10;;;;;;;;;;2246797;63;20311;-83
2021/04/18 09:19:23;;;;;;;12.35;7.93;;;;;;;;;;2247238;64;20166;-81
2021/04/18 09:21:57;;;;;;;9.65;7.50;;;;;;;;;;2245755;63;20374;-82
2021/04/18 09:24:27;;;;;;;13.70;7.88;;;;;;;;;;2246790;63;20184;-82
2021/04/18 09:26:55;;;;;;;9.13;7.30;;;;;;;;;;2246800;64;20181;-83
2021/04/18 09:29:27;;;;;;;9.15;7.50;;;;;;;;;;2247431;64;20268;-81
2021/04/18 09:32:03;;;;;;;11.45;6.95;;;;;;;;;;2247054;63;20237;-80
2021/04/18 09:34:32;;;;;;;7.97;6.63;;;;;;;;;;2247074;63;20162;-81
2021/04/18 09:37:01;;;;;;;8.77;6.57;;;;;;;;;;2247464;63;20230;-80
2021/04/18 09:39:29;;;;;;;10.25;6.45;;;;;;;;;;2247688;63;20182;-81
2021/04/18 09:41:57;;;;;;;14.98;7.32;;;;;;;;;;2247659;63;20178;-80
2021/04/18 09:44:27;;;;;;;7.50;6.30;;;;;;;;;;2247382;64;20170;-80
2021/04/18 09:46:59;;;;;;;12.13;5.90;;;;;;;;;;2247532;63;20165;-80
2021/04/18 09:49:27;;;;;;;12.27;5.85;;;;;;;;;;2247554;63;20553;-80
2021/04/18 09:51:59;;;;;;;9.15;5.63;;;;;;;;;;2247865;63;20206;-80
2021/04/18 09:54:28;;;;;;;8.35;6.00;;;;;;;;;;2247584;63;20200;-81
2021/04/18 09:57:11;;;;;;;10.45;6.30;;;;;;;;;;2247115;64;20262;-81
2021/04/18 09:59:39;;;;;;;8.30;5.75;;;;;;;;;;2243307;64;20211;-79
2021/04/18 10:02:13;;;;;;;9.30;5.53;;;;;;;;;;2244107;64;20222;-79
2021/04/18 10:04:42;;;;;;;8.77;5.40;;;;;;;;;;2243035;64;20711;-79
2021/04/18 10:07:10;;;;;;;8.85;5.97;;;;;;;;;;2242162;64;20174;-80
2021/04/18 10:09:56;;;;;;;8.57;7.43;;;;;;;;;;2236229;64;20217;-79
2021/04/18 10:12:26;;;;;;;8.32;6.82;;;;;;;;;;2244713;63;20352;-81
2021/04/18 10:15:08;;;;;;;10.30;5.93;;;;;;;;;;2245861;63;20174;-79
2021/04/18 10:17:37;;;;;;;8.50;6.35;;;;;;;;;;2244890;64;20261;-80
2021/04/18 10:20:05;;;;;;;10.05;6.55;;;;;;;;;;2244453;63;20174;-80
2021/04/18 10:22:38;;;;;;;8.75;6.20;;;;;;;;;;2246039;64;20373;-80
2021/04/18 10:25:08;;;;;;;7.80;6.30;;;;;;;;;;2246211;64;20291;-82
2021/04/18 10:27:36;;;;;;;6.93;5.78;;;;;;;;;;2247158;64;20182;-81
2021/04/18 10:30:07;;;;;;;9.25;6.65;;;;;;;;;;2246351;64;20245;-81
2021/04/18 10:32:34;;;;;;;;;;;;;;;;;;2247243;63;20261;-79
2021/04/18 10:35:02;;;;;;;8.88;6.15;;;;;;;;;;2245180;63;20054;-80
2021/04/18 10:37:29;;;;;;;7.93;6.00;;;;;;;;;;2244974;64;20209;-80
2021/04/18 10:39:57;;;;;;;10.35;6.20;;;;;;;;;;2244847;64;20301;-82
2021/04/18 10:42:24;;;;;;;10.40;6.95;;;;;;;;;;2245403;64;20190;-82
2021/04/18 10:44:52;;;;;;;6.93;6.07;;;;;;;;;;2246130;64;20185;-80
2021/04/18 10:47:20;;;;;;;9.50;6.55;;;;;;;;;;2247074;64;20147;-82
2021/04/18 10:49:49;;;;;;;6.35;5.75;;;;;;;;;;2246542;64;20319;-80
2021/04/18 10:52:17;;;;;;;8.27;5.88;;;;;;;;;;2245549;64;20208;-79
2021/04/18 10:54:47;;;;;;;9.07;5.90;;;;;;;;;;2246347;64;20179;-81
2021/04/18 10:57:14;;;;;;;7.43;6.57;;;;;;;;;;2245811;63;20211;-81
2021/04/18 10:59:41;;;;;;;8.93;6.38;;;;;;;;;;2245795;63;20187;-82
2021/04/18 11:02:09;;;;;;;12.15;6.47;;;;;;;;;;2245715;64;20210;-82
2021/04/18 11:04:37;;;;;;;9.70;5.55;;;;;;;;;;2243217;64;20282;-82
2021/04/18 11:07:05;;;;;;;7.85;5.60;;;;;;;;;;2244562;64;20365;-83
2021/04/18 11:09:32;;;;;;;11.15;5.82;;;;;;;;;;2245108;64;20165;-82
2021/04/18 11:12:00;;;;;;;9.00;6.35;;;;;;;;;;2247167;63;20243;-82
2021/04/18 11:14:28;;;;;;;7.07;6.13;;;;;;;;;;2245637;63;20199;-82
2021/04/18 11:16:55;;;;;;;12.18;6.15;;;;;;;;;;2245193;63;20194;-82
2021/04/18 11:19:22;;;;;;;11.70;6.47;;;;;;;;;;2245891;63;20178;-80
2021/04/18 11:21:50;;;;;;;8.57;6.30;;;;;;;;;;2246200;64;20209;-82
2021/04/18 11:28:19;;;;;;;8.82;6.38;;;;;;;;;;5128594;27;1962267;-83
2021/04/18 11:30:47;;;;;;;7.75;6.25;;;;;;;;;;5173031;27;20051;-83
2021/04/18 11:33:14;;;;;;;8.98;6.18;;;;;;;;;;5172499;27;20078;-82
2021/04/18 11:35:41;;;;;;;6.75;5.53;;;;;;;;;;5142932;27;20031;-81
2021/04/18 11:38:08;;;;;;;8.50;5.70;;;;;;;;;;5151770;28;20050;-83
2021/04/18 11:40:35;;;;;;;9.23;6.32;;;;;;;;;;5148333;28;20036;-82
2021/04/18 11:43:03;;;;;;;6.05;5.45;;;;;;;;;;5142334;28;20039;-84
2021/04/18 11:45:30;;;;;;;6.75;5.80;;;;;;;;;;5139216;28;20028;-84
2021/04/18 11:47:59;;;;;;;7.60;6.25;;;;;;;;;;5151090;28;20043;-83
2021/04/18 11:50:26;;;;;;;8.30;5.18;;;;;;;;;;5145090;28;20023;-83
2021/04/18 11:52:55;;;;;;;8.38;5.07;;;;;;;;;;5153058;27;20055;-85
2021/04/18 11:55:25;;;;;;;6.88;5.43;;;;;;;;;;5142910;28;20036;-84
2021/04/18 11:57:52;;;;;;;7.65;4.88;;;;;;;;;;5152467;28;20031;-83
2021/04/18 12:00:19;;;;;;;7.82;5.57;;;;;;;;;;5142063;28;20043;-83
2021/04/18 12:02:46;;;;;;;8.10;5.07;;;;;;;;;;5135302;28;20046;-83
2021/04/18 12:05:14;;;;;;;8.60;6.07;;;;;;;;;;5142543;28;20070;-82
2021/04/18 12:07:41;;;;;;;8.30;5.40;;;;;;;;;;5142651;28;20055;-84
2021/04/18 12:10:08;;;;;;;7.32;5.40;;;;;;;;;;5134508;28;20105;-83
2021/04/18 12:12:35;;;;;;;7.13;5.03;;;;;;;;;;5150105;28;20047;-81
2021/04/18 12:15:03;;;;;;;6.32;5.53;;;;;;;;;;5134998;28;20043;-79
2021/04/18 12:17:34;;;;;;;7.95;5.60;;;;;;;;;;5142107;28;20039;-80
2021/04/18 12:20:01;;;;;;;6.65;5.32;;;;;;;;;;5147587;28;20099;-80
2021/04/18 12:22:28;;;;;;;7.30;5.40;;;;;;;;;;5146218;28;20047;-81
2021/04/18 12:24:58;;;;;;;9.13;5.88;;;;;;;;;;5129796;28;20069;-82
2021/04/18 12:27:25;;;;;;;10.50;6.83;;;;;;;;;;5130822;28;20032;-79
2021/04/18 12:29:53;;;;;;;7.40;6.00;;;;;;;;;;5140148;28;20031;-80
2021/04/18 12:32:22;;;;;;;7.10;5.60;;;;;;;;;;5141057;28;20053;-81
2021/04/18 12:34:50;;;;;;;6.07;5.45;;;;;;;;;;5142394;28;20036;-80
2021/04/18 12:37:19;;;;;;;10.77;6.10;;;;;;;;;;5140089;28;20038;-82
2021/04/18 12:39:47;;;;;;;7.85;5.68;;;;;;;;;;5135376;28;20043;-82
2021/04/18 12:42:14;;;;;;;7.03;5.50;;;;;;;;;;5126149;28;20047;-80
2021/04/18 12:44:41;;;;;;;7.55;5.45;;;;;;;;;;5135354;28;20055;-79
2021/04/18 12:47:12;;;;;;;7.70;5.38;;;;;;;;;;5123962;28;20043;-79
2021/04/18 12:49:42;;;;;;;10.43;5.35;;;;;;;;;;5116750;28;20518;-81
2021/04/18 12:52:09;;;;;;;6.25;5.30;;;;;;;;;;5127205;28;20046;-81
2021/04/18 12:54:36;;;;;;;5.72;4.65;;;;;;;;;;5127021;28;20070;-83
2021/04/18 12:57:04;;;;;;;8.02;4.95;;;;;;;;;;5127401;28;20039;-84
2021/04/18 12:59:32;;;;;;;6.45;3.95;;;;;;;;;;5137012;28;20043;-80
2021/04/18 13:02:01;;;;;;;6.60;5.20;;;;;;;;;;5130246;28;20024;-85
2021/04/18 13:04:28;;;;;;;6.70;4.68;;;;;;;;;;5129310;28;20035;-84
2021/04/18 13:06:55;;;;;;;7.82;5.35;;;;;;;;;;5129361;28;20069;-82
2021/04/18 13:09:22;;;;;;;7.10;4.80;;;;;;;;;;5128403;28;20032;-83
2021/04/18 13:11:49;;;;;;;8.85;4.78;;;;;;;;;;5132769;28;20016;-82
2021/04/18 13:14:16;;;;;;;7.32;4.03;;;;;;;;;;5126231;28;20024;-82
2021/04/18 13:16:45;;;;;;;5.38;3.30;;;;;;;;;;5134337;28;20040;-81
2021/04/18 13:19:12;;;;;;;8.27;3.28;;;;;;;;;;5127973;28;20058;-82
2021/04/18 13:21:42;;;;;;;8.88;3.72;;;;;;;;;;5119014;28;20112;-81
2021/04/18 13:24:10;;;;;;;4.68;2.92;;;;;;;;;;5112428;28;20048;-84
2021/04/18 13:26:38;;;;;;;4.25;3.00;;;;;;;;;;5138217;28;20051;-81
2021/04/18 13:29:05;;;;;;;4.82;3.42;;;;;;;;;;5138567;28;20402;-82
2021/04/18 13:31:32;;;;;;;6.60;2.95;;;;;;;;;;5138547;28;20106;-83
2021/04/18 13:34:01;;;;;;;5.18;3.20;;;;;;;;;;5138066;28;20073;-83
2021/04/18 13:36:28;;;;;;;4.07;2.72;;;;;;;;;;5137551;28;20107;-82
2021/04/18 13:38:57;;;;;;;3.25;2.30;;;;;;;;;;5138033;28;20043;-82
2021/04/18 13:41:27;;;;;;;21.42;12.93;;;;;;;;;;5138787;28;20027;-84
2021/04/18 13:43:55;;;;;;;5.13;2.50;;;;;;;;;;5137348;28;20043;-82
2021/04/18 13:46:22;;;;;;;4.78;2.97;;;;;;;;;;5138014;28;20079;-81
2021/04/18 13:48:49;;;;;;;6.97;2.85;;;;;;;;;;5138221;28;20061;-82
2021/04/18 13:51:16;;;;;;;6.68;3.45;;;;;;;;;;5119820;28;20028;-82
2021/04/18 13:53:44;;;;;;;6.00;3.40;;;;;;;;;;5138334;28;20128;-82
2021/04/18 13:56:11;;;;;;;6.47;3.80;;;;;;;;;;5138591;28;20035;-82
2021/04/18 13:58:39;;;;;;;5.72;3.10;;;;;;;;;;5137676;28;20031;-81
2021/04/18 14:01:07;;;;;;;5.88;4.00;;;;;;;;;;5137826;28;20051;-81
2021/04/18 14:03:34;;;;;;;5.25;3.88;;;;;;;;;;5137465;28;20122;-82
2021/04/18 14:06:01;;;;;;;6.60;3.78;;;;;;;;;;5138671;28;20024;-82
2021/04/18 14:08:28;;;;;;;6.68;4.30;;;;;;;;;;5137635;28;20054;-82
2021/04/18 14:10:55;;;;;;;5.20;3.78;;;;;;;;;;5138537;28;20040;-82
2021/04/18 14:13:23;;;;;;;5.97;4.07;;;;;;;;;;5137537;28;20046;-82
2021/04/18 14:15:49;;;;;;;6.53;4.00;;;;;;;;;;5136783;28;20078;-82
2021/04/18 14:18:16;;;;;;;6.15;3.80;;;;;;;;;;5137005;28;20044;-82
2021/04/18 14:20:44;;;;;;;6.90;3.60;;;;;;;;;;5136244;28;20048;-84
2021/04/18 14:23:10;;;;;;;7.32;4.40;;;;;;;;;;5137163;28;20066;-82
2021/04/18 14:25:38;;;;;;;4.80;3.22;;;;;;;;;;5137954;28;20040;-84
2021/04/18 14:28:05;;;;;;;8.57;4.85;;;;;;;;;;5137691;28;20043;-83
2021/04/18 14:30:32;;;;;;;6.90;4.70;;;;;;;;;;5137997;28;20108;-83
2021/04/18 14:33:00;;;;;;;7.05;4.78;;;;;;;;;;5137118;28;20037;-82
2021/04/18 14:35:28;;;;;;;7.28;5.10;;;;;;;;;;5137287;28;20059;-82
2021/04/18 14:38:02;;;;;;;8.15;4.80;;;;;;;;;;5137018;28;20063;-84
2021/04/18 14:40:29;;;;;;;9.52;5.43;;;;;;;;;;5132783;28;20474;-82
2021/04/18 14:42:58;;;;;;;7.38;4.63;;;;;;;;;;5135243;28;20031;-83
2021/04/18 14:45:25;;;;;;;10.35;6.07;;;;;;;;;;5137025;28;20035;-81
2021/04/18 14:47:52;;;;;;;8.70;5.85;;;;;;;;;;5137181;28;20031;-80
2021/04/18 14:50:21;;;;;;;8.13;5.35;;;;;;;;;;5136614;28;20043;-79